Time;durP1;ratioP1;P1;durP2;ratioP2;P2;SDS_P1;SDS_P2;PMS_P1;PMS_P2;Temp;Humidity;BMP_temperature;BMP_pressure;BME280_temperature;BME280_humidity;BME280_pressure;Samples;Min_cycle;Max_cycle;Signal;HPM_P1;HPM_P2
2022/07/08 00:00:38;;;;;;;;;;;;;;;;;;4944506;28;136485;-62
2022/07/08 00:03:05;;;;;;;;;;;;;;;;;;4944595;28;137901;-62
2022/07/08 00:05:31;;;;;;;;;;;;;;;;;;4942313;28;108925;-62
2022/07/08 00:07:57;;;;;;;;;;;;;;;;;;4944920;28;135198;-61
2022/07/08 00:10:23;;;;;;;;;;;;;;;;;;4947032;28;136493;-61
2022/07/08 00:12:50;;;;;;;;;;;;;;;;;;4946462;28;106186;-60
2022/07/08 00:15:16;;;;;;;;;;;;;;;;;;4946498;28;133437;-61
2022/07/08 00:17:42;;;;;;;;;;;;;;;;;;4936058;28;122924;-61
2022/07/08 00:20:09;;;;;;;;;;;;;;;;;;4943858;28;119713;-61
2022/07/08 00:22:36;;;;;;;;;;;;;;;;;;4945586;28;135579;-61
2022/07/08 00:25:02;;;;;;;;;;;;;;;;;;4945664;28;130116;-60
2022/07/08 00:27:28;;;;;;;;;;;;;;;;;;4944816;28;134183;-61
2022/07/08 00:29:54;;;;;;;;;;;;;;;;;;4938925;28;137237;-61
2022/07/08 00:32:21;;;;;;;;;;;;;;;;;;4946808;28;112024;-61
2022/07/08 00:34:48;;;;;;;;;;;;;;;;;;4946148;28;136685;-61
2022/07/08 00:37:15;;;;;;;;;;;;;;;;;;4936762;28;132202;-60
2022/07/08 00:39:41;;;;;;;;;;;;;;;;;;4948536;28;128609;-61
2022/07/08 00:42:07;;;;;;;;;;;;;;;;;;4941898;28;137687;-62
2022/07/08 00:44:34;;;;;;;;;;;;;;;;;;4945168;28;128085;-61
2022/07/08 00:47:00;;;;;;;;;;;;;;;;;;4947886;28;131340;-61
2022/07/08 00:49:26;;;;;;;;;;;;;;;;;;4960162;28;136582;-61
2022/07/08 00:51:52;;;;;;;;;;;;;;;;;;4949705;28;130263;-61
2022/07/08 00:54:19;;;;;;;;;;;;;;;;;;4948910;28;136575;-61
2022/07/08 00:56:45;;;;;;;;;;;;;;;;;;4947733;28;137619;-61
2022/07/08 00:59:11;;;;;;;;;;;;;;;;;;4947215;28;117902;-60
2022/07/08 01:01:38;;;;;;;;;;;;;;;;;;4952314;28;136522;-61
2022/07/08 01:04:04;;;;;;;;;;;;;;;;;;4936681;28;128609;-61
2022/07/08 01:06:30;;;;;;;;;;;;;;;;;;4947691;28;136743;-61
2022/07/08 01:08:57;;;;;;;;;;;;;;;;;;4949020;28;125944;-61
2022/07/08 01:11:23;;;;;;;;;;;;;;;;;;4950266;28;106767;-61
2022/07/08 01:13:49;;;;;;;;;;;;;;;;;;4949635;28;135337;-61
2022/07/08 01:16:16;;;;;;;;;;;;;;;;;;4949210;28;138801;-61
2022/07/08 01:18:44;;;;;;;;;;;;;;;;;;4957562;28;106210;-60
2022/07/08 01:21:10;;;;;;;;;;;;;;;;;;4948346;28;124460;-61
2022/07/08 01:23:36;;;;;;;;;;;;;;;;;;4948160;28;137266;-61
2022/07/08 01:26:03;;;;;;;;;;;;;;;;;;4946477;28;135359;-61
2022/07/08 01:28:35;;;;;;;;;;;;;;;;;;4954966;28;138051;-61
2022/07/08 01:31:01;;;;;;;;;;;;;;;;;;4948769;28;126048;-61
2022/07/08 01:33:28;;;;;;;;;;;;;;;;;;4945053;28;135736;-61
2022/07/08 01:35:54;;;;;;;;;;;;;;;;;;4953744;28;136736;-61
2022/07/08 01:38:20;;;;;;;;;;;;;;;;;;4953492;28;126122;-61
2022/07/08 01:40:47;;;;;;;;;;;;;;;;;;4949704;28;116846;-60
2022/07/08 01:43:13;;;;;;;;;;;;;;;;;;4947381;28;128930;-61
2022/07/08 01:45:39;;;;;;;;;;;;;;;;;;4957532;28;132657;-61
2022/07/08 01:48:06;;;;;;;;;;;;;;;;;;4948729;28;135852;-65
2022/07/08 01:50:33;;;;;;;;;;;;;;;;;;4949238;28;128625;-61
2022/07/08 01:52:59;;;;;;;;;;;;;;;;;;4949370;28;118102;-61
2022/07/08 01:55:25;;;;;;;;;;;;;;;;;;4944424;28;136407;-61
2022/07/08 01:57:52;;;;;;;;;;;;;;;;;;4946944;28;128099;-61
2022/07/08 02:00:18;;;;;;;;;;;;;;;;;;4947649;28;138048;-61
2022/07/08 02:02:44;;;;;;;;;;;;;;;;;;4947408;28;135169;-61
2022/07/08 02:05:11;;;;;;;;;;;;;;;;;;4950751;28;107902;-61
2022/07/08 02:07:37;;;;;;;;;;;;;;;;;;4951351;28;106739;-61
2022/07/08 02:10:03;;;;;;;;;;;;;;;;;;4944075;28;129533;-60
2022/07/08 02:12:30;;;;;;;;;;;;;;;;;;4940081;28;135962;-60
2022/07/08 02:15:01;;;;;;;;;;;;;;;;;;4944269;28;135739;-60
2022/07/08 02:17:27;;;;;;;;;;;;;;;;;;4945460;28;128936;-60
2022/07/08 02:19:54;;;;;;;;;;;;;;;;;;4946955;28;132075;-61
2022/07/08 02:22:20;;;;;;;;;;;;;;;;;;4946861;28;137167;-61
2022/07/08 02:24:49;;;;;;;;;;;;;;;;;;4946209;28;113205;-61
2022/07/08 02:27:16;;;;;;;;;;;;;;;;;;4950198;28;136104;-61
2022/07/08 02:29:42;;;;;;;;;;;;;;;;;;4948113;28;129299;-62
2022/07/08 02:32:08;;;;;;;;;;;;;;;;;;4946690;28;135386;-61
2022/07/08 02:34:35;;;;;;;;;;;;;;;;;;4947415;28;135825;-61
2022/07/08 02:37:01;;;;;;;;;;;;;;;;;;4945972;28;112214;-61
2022/07/08 02:39:27;;;;;;;;;;;;;;;;;;4947009;28;135439;-61
2022/07/08 02:41:53;;;;;;;;;;;;;;;;;;4949901;28;137368;-61
2022/07/08 02:44:20;;;;;;;;;;;;;;;;;;4945364;28;127020;-61
2022/07/08 02:46:46;;;;;;;;;;;;;;;;;;4947334;28;136529;-61
2022/07/08 02:49:12;;;;;;;;;;;;;;;;;;4946196;28;137800;-62
2022/07/08 02:51:39;;;;;;;;;;;;;;;;;;4950191;28;134038;-61
2022/07/08 02:54:05;;;;;;;;;;;;;;;;;;4945579;28;137188;-61
2022/07/08 02:56:31;;;;;;;;;;;;;;;;;;4946485;28;128793;-61
2022/07/08 02:59:00;;;;;;;;;;;;;;;;;;4947179;28;135998;-61
2022/07/08 03:01:27;;;;;;;;;;;;;;;;;;4946864;28;133377;-61
2022/07/08 03:03:53;;;;;;;;;;;;;;;;;;4946606;28;121292;-61
2022/07/08 03:06:19;;;;;;;;;;;;;;;;;;4946595;28;136525;-61
2022/07/08 03:08:46;;;;;;;;;;;;;;;;;;4947638;28;108367;-61
2022/07/08 03:11:12;;;;;;;;;;;;;;;;;;4950489;28;130058;-61
2022/07/08 03:13:38;;;;;;;;;;;;;;;;;;4945223;28;137621;-61
2022/07/08 03:16:05;;;;;;;;;;;;;;;;;;4948162;28;108350;-61
2022/07/08 03:18:31;;;;;;;;;;;;;;;;;;4946420;28;134613;-61
2022/07/08 03:20:58;;;;;;;;;;;;;;;;;;4953868;28;137827;-61
2022/07/08 03:23:25;;;;;;;;;;;;;;;;;;4946537;28;127986;-61
2022/07/08 03:25:51;;;;;;;;;;;;;;;;;;4947339;28;137249;-65
2022/07/08 03:28:17;;;;;;;;;;;;;;;;;;4944074;28;137144;-61
2022/07/08 03:30:43;;;;;;;;;;;;;;;;;;4949838;28;106790;-62
2022/07/08 03:33:10;;;;;;;;;;;;;;;;;;4953016;28;134861;-61
2022/07/08 03:35:36;;;;;;;;;;;;;;;;;;4947287;28;128101;-62
2022/07/08 03:38:02;;;;;;;;;;;;;;;;;;4940264;28;137287;-61
2022/07/08 03:43:18;;;;;;;;;;;;;;;;;;4947328;28;129192;-61
2022/07/08 03:45:45;;;;;;;;;;;;;;;;;;4945178;28;126675;-61
2022/07/08 03:48:11;;;;;;;;;;;;;;;;;;4945650;28;136801;-61
2022/07/08 03:50:37;;;;;;;;;;;;;;;;;;4941963;28;126857;-61
2022/07/08 03:53:04;;;;;;;;;;;;;;;;;;4946361;28;136797;-61
2022/07/08 03:55:30;;;;;;;;;;;;;;;;;;4948613;28;115326;-61
2022/07/08 03:57:57;;;;;;;;;;;;;;;;;;4947014;28;134131;-61
2022/07/08 04:00:24;;;;;;;;;;;;;;;;;;4946072;28;136949;-62
2022/07/08 04:02:50;;;;;;;;;;;;;;;;;;4946551;28;106101;-61
2022/07/08 04:05:16;;;;;;;;;;;;;;;;;;4938448;28;135294;-61
2022/07/08 04:07:42;;;;;;;;;;;;;;;;;;4941467;28;136839;-61
2022/07/08 04:10:14;;;;;;;;;;;;;;;;;;4946705;28;129033;-60
2022/07/08 04:12:40;;;;;;;;;;;;;;;;;;4944388;28;136085;-61
2022/07/08 04:15:06;;;;;;;;;;;;;;;;;;4946322;28;135791;-61
2022/07/08 04:17:33;;;;;;;;;;;;;;;;;;4948139;28;108930;-61
2022/07/08 04:19:59;;;;;;;;;;;;;;;;;;4946206;28;135751;-61
2022/07/08 04:22:25;;;;;;;;;;;;;;;;;;4944870;28;128007;-61
2022/07/08 04:24:52;;;;;;;;;;;;;;;;;;4947124;28;135386;-62
2022/07/08 04:27:18;;;;;;;;;;;;;;;;;;4944799;28;135573;-61
2022/07/08 04:29:45;;;;;;;;;;;;;;;;;;4937505;28;130469;-61
2022/07/08 04:32:11;;;;;;;;;;;;;;;;;;4945813;28;107404;-61
2022/07/08 04:34:37;;;;;;;;;;;;;;;;;;4942556;28;135862;-61
2022/07/08 04:37:04;;;;;;;;;;;;;;;;;;4948381;28;126525;-61
2022/07/08 04:39:30;;;;;;;;;;;;;;;;;;4946676;28;107363;-61
2022/07/08 04:41:56;;;;;;;;;;;;;;;;;;4940184;28;126503;-61
2022/07/08 04:44:23;;;;;;;;;;;;;;;;;;4946338;28;122227;-62
2022/07/08 04:46:49;;;;;;;;;;;;;;;;;;4948964;28;136393;-60
2022/07/08 04:49:16;;;;;;;;;;;;;;;;;;4937542;28;111589;-61
2022/07/08 04:51:42;;;;;;;;;;;;;;;;;;4944918;28;136557;-61
2022/07/08 04:54:09;;;;;;;;;;;;;;;;;;4947202;28;107535;-61
2022/07/08 04:56:35;;;;;;;;;;;;;;;;;;4944260;28;129135;-61
2022/07/08 04:59:01;;;;;;;;;;;;;;;;;;4948802;28;137153;-61
2022/07/08 05:01:27;;;;;;;;;;;;;;;;;;4940163;28;129177;-60
2022/07/08 05:03:54;;;;;;;;;;;;;;;;;;4933711;28;136391;-61
2022/07/08 05:06:20;;;;;;;;;;;;;;;;;;4943569;28;137149;-61
2022/07/08 05:08:46;;;;;;;;;;;;;;;;;;4944987;28;129112;-61
2022/07/08 05:11:13;;;;;;;;;;;;;;;;;;4942328;28;133588;-61
2022/07/08 05:13:39;;;;;;;;;;;;;;;;;;4945822;28;136354;-61
2022/07/08 05:16:05;;;;;;;;;;;;;;;;;;4945764;28;128543;-61
2022/07/08 05:18:32;;;;;;;;;;;;;;;;;;4945477;28;136771;-61
2022/07/08 05:20:59;;;;;;;;;;;;;;;;;;4946009;28;136793;-61
2022/07/08 05:23:25;;;;;;;;;;;;;;;;;;4945421;28;135314;-61
2022/07/08 05:25:51;;;;;;;;;;;;;;;;;;4943968;28;136405;-61
2022/07/08 05:28:18;;;;;;;;;;;;;;;;;;4945966;28;127389;-61
2022/07/08 05:30:44;;;;;;;;;;;;;;;;;;4942958;28;137366;-61
2022/07/08 05:33:10;;;;;;;;;;;;;;;;;;4943361;28;122089;-61
2022/07/08 05:35:37;;;;;;;;;;;;;;;;;;4943320;28;128555;-61
2022/07/08 05:38:03;;;;;;;;;;;;;;;;;;4950010;28;134055;-61
2022/07/08 05:40:29;;;;;;;;;;;;;;;;;;4945261;28;127043;-61
2022/07/08 05:42:55;;;;;;;;;;;;;;;;;;4953544;28;118842;-64
2022/07/08 05:45:22;;;;;;;;;;;;;;;;;;4947860;28;126919;-62
2022/07/08 05:47:48;;;;;;;;;;;;;;;;;;4942179;28;127857;-61
2022/07/08 05:50:14;;;;;;;;;;;;;;;;;;4948900;28;134212;-61
2022/07/08 05:52:41;;;;;;;;;;;;;;;;;;4959271;28;135007;-61
2022/07/08 05:55:07;;;;;;;;;;;;;;;;;;4948635;28;128996;-62
2022/07/08 05:57:33;;;;;;;;;;;;;;;;;;4945639;28;129736;-62
2022/07/08 06:00:00;;;;;;;;;;;;;;;;;;4948756;28;136978;-62
2022/07/08 06:02:26;;;;;;;;;;;;;;;;;;4956800;28;106903;-63
2022/07/08 06:04:52;;;;;;;;;;;;;;;;;;4954353;28;136430;-62
2022/07/08 06:07:19;;;;;;;;;;;;;;;;;;4947047;28;106565;-62
2022/07/08 06:09:45;;;;;;;;;;;;;;;;;;4939687;28;121507;-62
2022/07/08 06:12:11;;;;;;;;;;;;;;;;;;4946375;28;137827;-62
2022/07/08 06:14:38;;;;;;;;;;;;;;;;;;4948902;28;130332;-62
2022/07/08 06:17:04;;;;;;;;;;;;;;;;;;4947809;28;135604;-62
2022/07/08 06:19:30;;;;;;;;;;;;;;;;;;4948388;28;131580;-62
2022/07/08 06:21:57;;;;;;;;;;;;;;;;;;4950583;28;129183;-62
2022/07/08 06:24:23;;;;;;;;;;;;;;;;;;4938725;28;135243;-62
2022/07/08 06:26:49;;;;;;;;;;;;;;;;;;4945696;28;107715;-62
2022/07/08 06:29:16;;;;;;;;;;;;;;;;;;4945066;28;136030;-62
2022/07/08 06:31:42;;;;;;;;;;;;;;;;;;4951049;28;135891;-61
2022/07/08 06:34:08;;;;;;;;;;;;;;;;;;4940623;28;113150;-62
2022/07/08 06:36:35;;;;;;;;;;;;;;;;;;4941297;28;127926;-62
2022/07/08 06:39:01;;;;;;;;;;;;;;;;;;4940358;28;136305;-62
2022/07/08 06:41:29;;;;;;;;;;;;;;;;;;4945544;28;129931;-62
2022/07/08 06:43:56;;;;;;;;;;;;;;;;;;4948142;28;106905;-62
2022/07/08 06:46:22;;;;;;;;;;;;;;;;;;4948292;28;137036;-62
2022/07/08 06:48:48;;;;;;;;;;;;;;;;;;4946753;28;134985;-68
2022/07/08 06:51:15;;;;;;;;;;;;;;;;;;4942837;28;135874;-64
2022/07/08 06:56:26;;;;;;;;;;;;;;;;;;4943276;28;135489;-63
2022/07/08 06:58:53;;;;;;;;;;;;;;;;;;4944634;28;136358;-63
2022/07/08 07:01:19;;;;;;;;;;;;;;;;;;4944803;28;128936;-63
2022/07/08 07:03:45;;;;;;;;;;;;;;;;;;4934139;28;120543;-63
2022/07/08 07:06:11;;;;;;;;;;;;;;;;;;4943661;28;137915;-62
2022/07/08 07:08:38;;;;;;;;;;;;;;;;;;4946842;28;112055;-61
2022/07/08 07:11:04;;;;;;;;;;;;;;;;;;4944388;28;137477;-65
2022/07/08 07:13:30;;;;;;;;;;;;;;;;;;4960375;28;115070;-62
2022/07/08 07:15:57;;;;;;;;;;;;;;;;;;4946380;28;135446;-63
2022/07/08 07:18:25;;;;;;;;;;;;;;;;;;4946407;28;133546;-64
2022/07/08 07:20:51;;;;;;;;;;;;;;;;;;4949321;28;130729;-63
2022/07/08 07:23:18;;;;;;;;;;;;;;;;;;4939483;28;107288;-63
2022/07/08 07:25:44;;;;;;;;;;;;;;;;;;4943882;28;134487;-62
2022/07/08 07:28:10;;;;;;;;;;;;;;;;;;4945671;28;129432;-62
2022/07/08 07:30:37;;;;;;;;;;;;;;;;;;4950327;28;135486;-63
2022/07/08 07:33:03;;;;;;;;;;;;;;;;;;4946904;28;109411;-63
2022/07/08 07:35:29;;;;;;;;;;;;;;;;;;4945042;28;135656;-62
2022/07/08 07:37:55;;;;;;;;;;;;;;;;;;4946384;28;129204;-63
2022/07/08 07:40:22;;;;;;;;;;;;;;;;;;4942868;28;112854;-62
2022/07/08 07:42:48;;;;;;;;;;;;;;;;;;4947469;28;106953;-62
2022/07/08 07:45:17;;;;;;;;;;;;;;;;;;4945466;28;135489;-63
2022/07/08 07:47:44;;;;;;;;;;;;;;;;;;4944772;28;121905;-62
2022/07/08 07:50:12;;;;;;;;;;;;;;;;;;4949925;28;127147;-63
2022/07/08 07:52:38;;;;;;;;;;;;;;;;;;4948732;28;107587;-63
2022/07/08 07:55:05;;;;;;;;;;;;;;;;;;4944784;28;132710;-64
2022/07/08 07:57:32;;;;;;;;;;;;;;;;;;4910090;28;135397;-64
2022/07/08 07:59:59;;;;;;;;;;;;;;;;;;4946032;28;129212;-64
2022/07/08 08:02:25;;;;;;;;;;;;;;;;;;4944978;28;120366;-62
2022/07/08 08:04:51;;;;;;;;;;;;;;;;;;4947019;28;134579;-65
2022/07/08 08:07:17;;;;;;;;;;;;;;;;;;4946088;28;126036;-64
2022/07/08 08:09:44;;;;;;;;;;;;;;;;;;4942508;28;136430;-63
2022/07/08 08:12:10;;;;;;;;;;;;;;;;;;4945261;28;136577;-64
2022/07/08 08:14:36;;;;;;;;;;;;;;;;;;4949489;28;105696;-64
2022/07/08 08:17:03;;;;;;;;;;;;;;;;;;4946731;28;136489;-61
2022/07/08 08:19:31;;;;;;;;;;;;;;;;;;4946302;28;117692;-61
2022/07/08 08:21:57;;;;;;;;;;;;;;;;;;4939408;28;134385;-62
2022/07/08 08:24:23;;;;;;;;;;;;;;;;;;4945298;28;136606;-62
2022/07/08 08:26:50;;;;;;;;;;;;;;;;;;4943712;28;124722;-61
2022/07/08 08:29:16;;;;;;;;;;;;;;;;;;4943901;28;124187;-61
2022/07/08 08:31:46;;;;;;;;;;;;;;;;;;4927262;28;107925;-61
2022/07/08 08:34:12;;;;;;;;;;;;;;;;;;4950106;28;106825;-62
2022/07/08 08:36:38;;;;;;;;;;;;;;;;;;4938023;28;138533;-61
2022/07/08 08:39:10;;;;;;;;;;;;;;;;;;4945196;28;127110;-61
2022/07/08 08:41:36;;;;;;;;;;;;;;;;;;4942821;28;136708;-62
2022/07/08 08:44:03;;;;;;;;;;;;;;;;;;4943171;28;134997;-61
2022/07/08 08:46:29;;;;;;;;;;;;;;;;;;4949715;28;129454;-62
2022/07/08 08:48:55;;;;;;;;;;;;;;;;;;4945595;28;135263;-61
2022/07/08 08:51:22;;;;;;;;;;;;;;;;;;4943835;28;116586;-62
2022/07/08 08:53:48;;;;;;;;;;;;;;;;;;4946256;28;129540;-61
2022/07/08 08:56:14;;;;;;;;;;;;;;;;;;4937295;28;134390;-61
2022/07/08 08:58:40;;;;;;;;;;;;;;;;;;4939479;28;121070;-62
2022/07/08 09:01:07;;;;;;;;;;;;;;;;;;4940441;28;135586;-65
2022/07/08 09:03:33;;;;;;;;;;;;;;;;;;4943600;28;135585;-62
2022/07/08 09:06:00;;;;;;;;;;;;;;;;;;4945787;28;109098;-61
2022/07/08 09:08:26;;;;;;;;;;;;;;;;;;4946473;28;136761;-61
2022/07/08 09:10:52;;;;;;;;;;;;;;;;;;4947270;28;125290;-61
2022/07/08 09:13:23;;;;;;;;;;;;;;;;;;4949811;28;127037;-61
2022/07/08 09:15:50;;;;;;;;;;;;;;;;;;4947912;28;134546;-61
2022/07/08 09:18:16;;;;;;;;;;;;;;;;;;4945801;28;133369;-62
2022/07/08 09:20:43;;;;;;;;;;;;;;;;;;4947384;28;135377;-62
2022/07/08 09:23:09;;;;;;;;;;;;;;;;;;4944994;28;130267;-62
2022/07/08 09:25:35;;;;;;;;;;;;;;;;;;4946946;28;126953;-62
2022/07/08 09:28:01;;;;;;;;;;;;;;;;;;4946218;28;108393;-62
2022/07/08 09:30:29;;;;;;;;;;;;;;;;;;4949028;28;137387;-62
2022/07/08 09:32:55;;;;;;;;;;;;;;;;;;4949350;28;106626;-62
2022/07/08 09:35:22;;;;;;;;;;;;;;;;;;4938251;28;126659;-62
2022/07/08 09:37:48;;;;;;;;;;;;;;;;;;4939392;28;119316;-62
2022/07/08 09:40:14;;;;;;;;;;;;;;;;;;4946705;28;108074;-62
2022/07/08 09:42:47;;;;;;;;;;;;;;;;;;4941675;28;131808;-62
2022/07/08 09:45:13;;;;;;;;;;;;;;;;;;4938011;28;128819;-62
2022/07/08 09:47:39;;;;;;;;;;;;;;;;;;4932210;28;117957;-61
2022/07/08 09:50:06;;;;;;;;;;;;;;;;;;4936775;28;114433;-62
2022/07/08 09:52:32;;;;;;;;;;;;;;;;;;4936807;28;128378;-61
2022/07/08 09:54:58;;;;;;;;;;;;;;;;;;4945004;28;130932;-61
2022/07/08 09:57:25;;;;;;;;;;;;;;;;;;4946201;28;137755;-60
2022/07/08 09:59:51;;;;;;;;;;;;;;;;;;4951249;28;107283;-61
2022/07/08 10:02:17;;;;;;;;;;;;;;;;;;4946323;28;136939;-62
2022/07/08 10:04:43;;;;;;;;;;;;;;;;;;4940079;28;128598;-61
2022/07/08 10:07:10;;;;;;;;;;;;;;;;;;4942648;28;120448;-61
2022/07/08 10:09:36;;;;;;;;;;;;;;;;;;4946904;28;122011;-61
2022/07/08 10:12:02;;;;;;;;;;;;;;;;;;4945802;28;129017;-61
2022/07/08 10:14:29;;;;;;;;;;;;;;;;;;4944777;28;128101;-61
2022/07/08 10:16:55;;;;;;;;;;;;;;;;;;4943941;28;126346;-61
2022/07/08 10:19:22;;;;;;;;;;;;;;;;;;4943096;28;122533;-62
2022/07/08 10:21:50;;;;;;;;;;;;;;;;;;4944218;28;123392;-62
2022/07/08 10:24:17;;;;;;;;;;;;;;;;;;4946216;28;121452;-63
2022/07/08 10:26:44;;;;;;;;;;;;;;;;;;4946152;28;136015;-61
2022/07/08 10:29:10;;;;;;;;;;;;;;;;;;4942832;28;114917;-60
2022/07/08 10:31:37;;;;;;;;;;;;;;;;;;4947282;28;106404;-62
2022/07/08 10:34:03;;;;;;;;;;;;;;;;;;4944697;28;107220;-63
2022/07/08 10:36:29;;;;;;;;;;;;;;;;;;4943603;28;108013;-63
2022/07/08 10:38:56;;;;;;;;;;;;;;;;;;4948550;28;130314;-63
2022/07/08 10:41:23;;;;;;;;;;;;;;;;;;4948318;28;124964;-63
2022/07/08 10:43:50;;;;;;;;;;;;;;;;;;4952343;28;107741;-62
2022/07/08 10:46:17;;;;;;;;;;;;;;;;;;4949956;28;121226;-62
2022/07/08 10:48:44;;;;;;;;;;;;;;;;;;4942624;28;136598;-61
2022/07/08 10:51:10;;;;;;;;;;;;;;;;;;4945129;28;125046;-62
2022/07/08 10:53:56;;;;;;;;;;;;;;;;;;4948490;28;106843;-61
2022/07/08 10:56:23;;;;;;;;;;;;;;;;;;4939716;28;137825;-62
2022/07/08 10:58:53;;;;;;;;;;;;;;;;;;4943730;28;126511;-63
2022/07/08 11:01:19;;;;;;;;;;;;;;;;;;4946259;28;137384;-61
2022/07/08 11:03:47;;;;;;;;;;;;;;;;;;4945588;28;135113;-61
2022/07/08 11:06:13;;;;;;;;;;;;;;;;;;4945988;28;120282;-61
2022/07/08 11:08:39;;;;;;;;;;;;;;;;;;4947486;28;107631;-61
2022/07/08 11:11:06;;;;;;;;;;;;;;;;;;4944601;28;124098;-64
2022/07/08 11:13:33;;;;;;;;;;;;;;;;;;4946768;28;127960;-62
2022/07/08 11:16:00;;;;;;;;;;;;;;;;;;4945434;28;123810;-61
2022/07/08 11:18:26;;;;;;;;;;;;;;;;;;4945766;28;128310;-61
2022/07/08 11:20:53;;;;;;;;;;;;;;;;;;4944735;28;114142;-62
2022/07/08 11:23:20;;;;;;;;;;;;;;;;;;4946283;28;121543;-61
2022/07/08 11:25:51;;;;;;;;;;;;;;;;;;4947176;28;108554;-61
2022/07/08 11:28:17;;;;;;;;;;;;;;;;;;4949959;28;139211;-61
2022/07/08 11:30:43;;;;;;;;;;;;;;;;;;4944242;28;129399;-61
2022/07/08 11:33:09;;;;;;;;;;;;;;;;;;4936715;28;125330;-61
2022/07/08 11:35:36;;;;;;;;;;;;;;;;;;4945756;28;138533;-60
2022/07/08 11:38:02;;;;;;;;;;;;;;;;;;4946904;28;130381;-61
2022/07/08 11:40:28;;;;;;;;;;;;;;;;;;4938520;28;138409;-61
2022/07/08 11:42:54;;;;;;;;;;;;;;;;;;4945623;28;131776;-61
2022/07/08 11:45:21;;;;;;;;;;;;;;;;;;4946389;28;107671;-62
2022/07/08 11:47:47;;;;;;;;;;;;;;;;;;4944083;28;134818;-60
2022/07/08 11:50:14;;;;;;;;;;;;;;;;;;4945229;28;126819;-61
2022/07/08 11:52:40;;;;;;;;;;;;;;;;;;4946314;28;137232;-61
2022/07/08 11:55:06;;;;;;;;;;;;;;;;;;4945830;28;121538;-63
2022/07/08 11:57:33;;;;;;;;;;;;;;;;;;4945576;28;108146;-61
2022/07/08 11:59:59;;;;;;;;;;;;;;;;;;4944816;28;134291;-61
2022/07/08 12:02:26;;;;;;;;;;;;;;;;;;4944751;28;136119;-61
2022/07/08 12:04:52;;;;;;;;;;;;;;;;;;4946464;28;127306;-62
2022/07/08 12:07:18;;;;;;;;;;;;;;;;;;4945582;28;131935;-61
2022/07/08 12:09:45;;;;;;;;;;;;;;;;;;4940139;28;108124;-61
2022/07/08 12:12:15;;;;;;;;;;;;;;;;;;4946157;28;129849;-61
2022/07/08 12:14:41;;;;;;;;;;;;;;;;;;4937231;28;129542;-61
2022/07/08 12:17:07;;;;;;;;;;;;;;;;;;4947608;28;107987;-61
2022/07/08 12:19:34;;;;;;;;;;;;;;;;;;4946842;28;138332;-61
2022/07/08 12:22:00;;;;;;;;;;;;;;;;;;4944124;28;132175;-60
2022/07/08 12:24:26;;;;;;;;;;;;;;;;;;4940246;28;127877;-61
2022/07/08 12:26:53;;;;;;;;;;;;;;;;;;4947617;28;117244;-61
2022/07/08 12:29:19;;;;;;;;;;;;;;;;;;4930040;28;137547;-61
2022/07/08 12:31:45;;;;;;;;;;;;;;;;;;4926389;28;130573;-62
2022/07/08 12:34:12;;;;;;;;;;;;;;;;;;4941627;28;125737;-62
2022/07/08 12:36:38;;;;;;;;;;;;;;;;;;4941687;28;129810;-61
2022/07/08 12:39:05;;;;;;;;;;;;;;;;;;4941905;28;108388;-61
2022/07/08 12:41:31;;;;;;;;;;;;;;;;;;4931582;28;123139;-62
2022/07/08 12:43:58;;;;;;;;;;;;;;;;;;4941498;28;130831;-62
2022/07/08 12:46:28;;;;;;;;;;;;;;;;;;4937744;28;137981;-61
2022/07/08 12:48:54;;;;;;;;;;;;;;;;;;4943161;28;137553;-62
2022/07/08 12:51:20;;;;;;;;;;;;;;;;;;4939914;28;131001;-62
2022/07/08 12:53:47;;;;;;;;;;;;;;;;;;4947608;28;107911;-63
2022/07/08 12:56:13;;;;;;;;;;;;;;;;;;4931720;28;129596;-62
2022/07/08 12:58:39;;;;;;;;;;;;;;;;;;4940494;28;131034;-63
2022/07/08 13:01:06;;;;;;;;;;;;;;;;;;4944127;28;138593;-66
2022/07/08 13:03:32;;;;;;;;;;;;;;;;;;4936359;28;107719;-63
2022/07/08 13:05:59;;;;;;;;;;;;;;;;;;4943131;28;138320;-63
2022/07/08 13:08:25;;;;;;;;;;;;;;;;;;4943769;28;120941;-63
2022/07/08 13:10:52;;;;;;;;;;;;;;;;;;4944159;28;129070;-63
2022/07/08 13:13:18;;;;;;;;;;;;;;;;;;4944965;28;130836;-62
2022/07/08 13:15:44;;;;;;;;;;;;;;;;;;4947555;28;136301;-63
2022/07/08 13:18:11;;;;;;;;;;;;;;;;;;4945275;28;128918;-63
2022/07/08 13:20:37;;;;;;;;;;;;;;;;;;4943535;28;110366;-62
2022/07/08 13:23:03;;;;;;;;;;;;;;;;;;4943092;28;130975;-62
2022/07/08 13:25:30;;;;;;;;;;;;;;;;;;4943380;28;108342;-62
2022/07/08 13:27:56;;;;;;;;;;;;;;;;;;4945416;28;138773;-62
2022/07/08 13:30:22;;;;;;;;;;;;;;;;;;4943472;28;122981;-62
2022/07/08 13:32:48;;;;;;;;;;;;;;;;;;4943696;28;139029;-63
2022/07/08 13:35:15;;;;;;;;;;;;;;;;;;4943480;28;131583;-62
2022/07/08 13:37:41;;;;;;;;;;;;;;;;;;4949549;28;107324;-63
2022/07/08 13:40:08;;;;;;;;;;;;;;;;;;4935308;28;120660;-62
2022/07/08 13:42:34;;;;;;;;;;;;;;;;;;4952232;28;107386;-62
2022/07/08 13:45:00;;;;;;;;;;;;;;;;;;4944972;28;137388;-62
2022/07/08 13:47:27;;;;;;;;;;;;;;;;;;4934611;28;136466;-63
2022/07/08 13:49:53;;;;;;;;;;;;;;;;;;4943176;28;130537;-62
2022/07/08 13:52:19;;;;;;;;;;;;;;;;;;4947838;28;137775;-63
2022/07/08 13:54:58;;;;;;;;;;;;;;;;;;4939089;28;135605;-63
2022/07/08 13:57:25;;;;;;;;;;;;;;;;;;4940906;28;129815;-63
2022/07/08 13:59:51;;;;;;;;;;;;;;;;;;4947357;28;138298;-64
2022/07/08 14:02:17;;;;;;;;;;;;;;;;;;4945820;28;126268;-63
2022/07/08 14:04:44;;;;;;;;;;;;;;;;;;4940983;28;136235;-63
2022/07/08 14:07:10;;;;;;;;;;;;;;;;;;4943620;28;135988;-63
2022/07/08 14:09:36;;;;;;;;;;;;;;;;;;4941976;28;116922;-63
2022/07/08 14:12:04;;;;;;;;;;;;;;;;;;4946774;28;115229;-64
2022/07/08 14:14:31;;;;;;;;;;;;;;;;;;4944937;28;139545;-63
2022/07/08 14:16:57;;;;;;;;;;;;;;;;;;4944034;28;132023;-63
2022/07/08 14:19:23;;;;;;;;;;;;;;;;;;4938788;28;134579;-64
2022/07/08 14:21:50;;;;;;;;;;;;;;;;;;4947949;28;117983;-63
2022/07/08 14:24:17;;;;;;;;;;;;;;;;;;4947795;28;124606;-63
2022/07/08 14:26:43;;;;;;;;;;;;;;;;;;4939649;28;107264;-63
2022/07/08 14:29:10;;;;;;;;;;;;;;;;;;4941253;28;129859;-63
2022/07/08 14:31:36;;;;;;;;;;;;;;;;;;4933632;28;130997;-62
2022/07/08 14:34:02;;;;;;;;;;;;;;;;;;4932243;28;122847;-62
2022/07/08 14:36:29;;;;;;;;;;;;;;;;;;4939449;28;107695;-63
2022/07/08 14:38:55;;;;;;;;;;;;;;;;;;4939726;28;137990;-63
2022/07/08 14:41:21;;;;;;;;;;;;;;;;;;4941562;28;138888;-63
2022/07/08 14:43:48;;;;;;;;;;;;;;;;;;4936149;28;130560;-62
2022/07/08 14:46:14;;;;;;;;;;;;;;;;;;4938511;28;108859;-62
2022/07/08 14:48:40;;;;;;;;;;;;;;;;;;4940479;28;132120;-62
2022/07/08 14:51:07;;;;;;;;;;;;;;;;;;4945910;28;127210;-64
2022/07/08 14:53:34;;;;;;;;;;;;;;;;;;4951101;28;138717;-64
2022/07/08 14:56:00;;;;;;;;;;;;;;;;;;4936081;28;131393;-64
2022/07/08 14:58:26;;;;;;;;;;;;;;;;;;4941730;28;108046;-63
2022/07/08 15:00:53;;;;;;;;;;;;;;;;;;4940217;28;142127;-64
2022/07/08 15:03:19;;;;;;;;;;;;;;;;;;4956067;28;128887;-64
2022/07/08 15:05:46;;;;;;;;;;;;;;;;;;4943965;28;140531;-64
2022/07/08 15:08:12;;;;;;;;;;;;;;;;;;4944594;28;132175;-63
2022/07/08 15:10:38;;;;;;;;;;;;;;;;;;4942383;28;130520;-64
2022/07/08 15:13:04;;;;;;;;;;;;;;;;;;4943359;28;126130;-61
2022/07/08 15:15:31;;;;;;;;;;;;;;;;;;4945528;28;107357;-61
2022/07/08 15:18:03;;;;;;;;;;;;;;;;;;4940795;28;125861;-61
2022/07/08 15:20:30;;;;;;;;;;;;;;;;;;4938814;28;122037;-64
2022/07/08 15:22:56;;;;;;;;;;;;;;;;;;4942219;28;108132;-64
2022/07/08 15:25:22;;;;;;;;;;;;;;;;;;4940770;28;138034;-64
2022/07/08 15:27:49;;;;;;;;;;;;;;;;;;4940536;28;107098;-62
2022/07/08 15:30:15;;;;;;;;;;;;;;;;;;4935205;28;136762;-65
2022/07/08 15:32:42;;;;;;;;;;;;;;;;;;4937467;28;138198;-64
2022/07/08 15:35:08;;;;;;;;;;;;;;;;;;4936772;28;130493;-63
2022/07/08 15:37:34;;;;;;;;;;;;;;;;;;4941256;28;131832;-64
2022/07/08 15:40:01;;;;;;;;;;;;;;;;;;4939059;28;108470;-66
2022/07/08 15:42:27;;;;;;;;;;;;;;;;;;4935671;28;131415;-64
2022/07/08 15:44:54;;;;;;;;;;;;;;;;;;4938923;28;136490;-63
2022/07/08 15:47:20;;;;;;;;;;;;;;;;;;4940586;28;120965;-64
2022/07/08 15:49:46;;;;;;;;;;;;;;;;;;4938609;28;136215;-63
2022/07/08 15:52:13;;;;;;;;;;;;;;;;;;4937972;28;135804;-63
2022/07/08 15:54:39;;;;;;;;;;;;;;;;;;4935792;28;107518;-63
2022/07/08 15:57:06;;;;;;;;;;;;;;;;;;4938597;28;138089;-66
2022/07/08 15:59:32;;;;;;;;;;;;;;;;;;4938609;28;127286;-64
2022/07/08 16:01:58;;;;;;;;;;;;;;;;;;4939421;28;122497;-64
2022/07/08 16:04:25;;;;;;;;;;;;;;;;;;4939447;28;137928;-63
2022/07/08 16:06:51;;;;;;;;;;;;;;;;;;4938164;28;113505;-65
2022/07/08 16:09:17;;;;;;;;;;;;;;;;;;4940202;28;129542;-64
2022/07/08 16:11:44;;;;;;;;;;;;;;;;;;4938192;28;137946;-63
2022/07/08 16:14:10;;;;;;;;;;;;;;;;;;4934907;28;131161;-63
2022/07/08 16:16:36;;;;;;;;;;;;;;;;;;4935191;28;137479;-63
2022/07/08 16:19:03;;;;;;;;;;;;;;;;;;4936515;28;137735;-63
2022/07/08 16:21:31;;;;;;;;;;;;;;;;;;4936381;28;128447;-62
2022/07/08 16:23:57;;;;;;;;;;;;;;;;;;4938947;28;136942;-62
2022/07/08 16:26:30;;;;;;;;;;;;;;;;;;4941280;28;121893;-62
2022/07/08 16:28:57;;;;;;;;;;;;;;;;;;4942444;28;128269;-62